createdAt,value
2023-06-07T00:04:47.139Z,100656.39
2023-06-07T00:09:49.599Z,100657.45
2023-06-07T00:14:52.190Z,100655.71
2023-06-07T00:19:56.831Z,100656.15
2023-06-07T00:24:58.640Z,100654.20
2023-06-07T00:30:01.445Z,100654.63
2023-06-07T00:35:07.998Z,100658.23
2023-06-07T00:40:10.794Z,100662.73
2023-06-07T00:45:13.187Z,100659.26
2023-06-07T00:50:15.476Z,100660.05
2023-06-07T00:55:17.556Z,100658.52
2023-06-07T01:00:21.066Z,100653.69
2023-06-07T01:05:23.048Z,100653.70
2023-06-07T01:10:25.237Z,100652.14
2023-06-07T01:15:27.113Z,100650.57
2023-06-07T01:20:32.402Z,100648.88
2023-06-07T01:25:34.547Z,100646.59
2023-06-07T01:30:36.593Z,100646.17
2023-06-07T01:35:40.353Z,100650.55
2023-06-07T01:40:44.181Z,100649.23
2023-06-07T01:45:47.116Z,100644.64
2023-06-07T01:50:49.054Z,100647.85
2023-06-07T01:56:04.142Z,100645.17
2023-06-07T02:01:09.493Z,100645.83
2023-06-07T02:06:17.616Z,100643.48
2023-06-07T02:11:23.079Z,100645.55
2023-06-07T02:16:36.409Z,100646.56
2023-06-07T02:21:38.721Z,100643.67
2023-06-07T02:26:41.106Z,100642.42
2023-06-07T02:31:42.905Z,100640.23
2023-06-07T02:36:45.311Z,100637.73
2023-06-07T02:41:47.155Z,100639.42
2023-06-07T02:46:49.122Z,100642.86
2023-06-07T02:51:51.451Z,100647.95
2023-06-07T02:56:53.384Z,100650.85
2023-06-07T03:01:55.494Z,100647.30
2023-06-07T03:06:57.550Z,100651.31
2023-06-07T03:11:59.427Z,100656.04
2023-06-07T03:17:03.566Z,100658.65
2023-06-07T03:22:07.172Z,100661.13
2023-06-07T03:27:12.237Z,100662.41
2023-06-07T03:32:14.312Z,100658.15
2023-06-07T03:37:17.326Z,100659.90
2023-06-07T03:42:18.979Z,100661.40
2023-06-07T03:47:20.865Z,100668.84
2023-06-07T03:52:23.041Z,100666.95
2023-06-07T03:57:25.128Z,100671.63
2023-06-07T04:02:28.889Z,100675.62
2023-06-07T04:07:30.829Z,100675.22
2023-06-07T04:12:32.600Z,100674.73
2023-06-07T04:17:34.418Z,100672.20
2023-06-07T04:22:36.577Z,100668.03
2023-06-07T04:27:39.054Z,100670.75
2023-06-07T04:32:41.074Z,100674.27
2023-06-07T04:37:46.500Z,100674.11
2023-06-07T04:42:56.280Z,100678.96
2023-06-07T04:47:59.393Z,100677.21
2023-06-07T04:53:03.484Z,100679.56
2023-06-07T04:58:06.694Z,100680.63
2023-06-07T05:03:14.101Z,100684.27
2023-06-07T05:08:16.898Z,100681.70
2023-06-07T05:13:18.784Z,100683.26
2023-06-07T05:18:21.371Z,100686.90
2023-06-07T05:23:23.402Z,100688.29
2023-06-07T05:28:25.340Z,100694.08
2023-06-07T05:33:31.631Z,100692.68
2023-06-07T05:38:33.487Z,100692.56
2023-06-07T05:43:36.802Z,100697.02
2023-06-07T05:48:38.681Z,100702.43
2023-06-07T05:53:40.694Z,100702.63
2023-06-07T05:58:43.766Z,100700.00
2023-06-07T06:03:45.748Z,100701.52
2023-06-07T06:08:47.623Z,100702.45
2023-06-07T06:13:51.029Z,100708.02
2023-06-07T06:18:53.008Z,100708.70
2023-06-07T06:23:54.739Z,100711.66
2023-06-07T06:28:56.763Z,100713.38
2023-06-07T06:33:58.946Z,100710.20
2023-06-07T06:39:03.278Z,100708.66
2023-06-07T06:44:05.262Z,100709.86
2023-06-07T06:49:12.664Z,100714.66
2023-06-07T06:54:15.665Z,100717.71
2023-06-07T06:59:17.542Z,100720.58
2023-06-07T07:04:19.472Z,100718.92
2023-06-07T07:09:21.511Z,100716.89
2023-06-07T07:14:23.282Z,100720.86
2023-06-07T07:19:25.268Z,100723.52
2023-06-07T07:24:27.596Z,100727.77
2023-06-07T07:29:29.552Z,100726.70
2023-06-07T07:34:31.489Z,100725.08
2023-06-07T07:39:33.588Z,100718.54
2023-06-07T07:44:35.698Z,100721.01
2023-06-07T07:49:37.629Z,100721.45
2023-06-07T07:54:40.041Z,100715.65
2023-06-07T07:59:42.020Z,100715.17
2023-06-07T08:04:43.939Z,100716.76
2023-06-07T08:09:45.770Z,100717.50
2023-06-07T08:14:47.761Z,100716.27
2023-06-07T08:19:49.643Z,100720.02
2023-06-07T08:24:51.813Z,100717.77
2023-06-07T08:29:53.587Z,100713.36
2023-06-07T08:34:56.385Z,100712.74
2023-06-07T08:39:58.262Z,100710.11
2023-06-07T08:45:01.169Z,100705.33
2023-06-07T08:50:05.203Z,100704.17
2023-06-07T08:55:13.434Z,100700.92
2023-06-07T09:00:15.905Z,100703.73
2023-06-07T09:05:22.752Z,100702.25
2023-06-07T09:10:25.095Z,100703.66
2023-06-07T09:15:28.820Z,100702.95
2023-06-07T09:20:32.439Z,100703.36
2023-06-07T09:25:34.834Z,100697.98
2023-06-07T09:30:51.950Z,100696.77
2023-06-07T09:36:11.868Z,100695.83
2023-06-07T09:41:14.116Z,100692.81
2023-06-07T09:46:17.352Z,100689.55
2023-06-07T09:51:21.007Z,100691.95
2023-06-07T09:56:24.816Z,100691.17
2023-06-07T10:01:41.564Z,100690.47
2023-06-07T10:06:45.640Z,100683.04
2023-06-07T10:11:53.907Z,100676.31
2023-06-07T10:17:04.289Z,100672.39
2023-06-07T10:22:15.025Z,100661.97
2023-06-07T10:27:22.047Z,100660.21
2023-06-07T10:32:29.118Z,100657.23
2023-06-07T10:37:35.052Z,100651.73
2023-06-07T10:42:47.648Z,100645.33
2023-06-07T10:47:50.386Z,100643.16
2023-06-07T10:52:57.022Z,100637.31
2023-06-07T10:58:02.056Z,100633.89
2023-06-07T11:03:11.789Z,100632.33
2023-06-07T11:08:31.781Z,100631.14
2023-06-07T11:13:40.939Z,100627.37
2023-06-07T11:19:11.870Z,100626.89
2023-06-07T11:24:14.679Z,100624.16
2023-06-07T11:29:21.638Z,100618.46
2023-06-07T11:34:24.322Z,100619.34
2023-06-07T11:39:33.679Z,100624.23
2023-06-07T11:44:36.096Z,100623.05
2023-06-07T11:49:41.838Z,100620.42
2023-06-07T11:54:44.580Z,100619.73
2023-06-07T11:59:46.554Z,100620.59
2023-06-07T12:04:48.650Z,100614.98
2023-06-07T12:09:51.284Z,100609.08
2023-06-07T12:15:03.022Z,100603.48
2023-06-07T12:20:13.362Z,100600.73
2023-06-07T12:25:20.301Z,100596.18
2023-06-07T12:30:32.943Z,100587.79
2023-06-07T12:35:39.892Z,100586.05
2023-06-07T12:40:42.108Z,100582.02
2023-06-07T12:45:44.244Z,100579.89
2023-06-07T12:50:48.294Z,100580.55
2023-06-07T12:55:50.584Z,100580.06
2023-06-07T13:00:55.031Z,100579.57
2023-06-07T13:05:57.399Z,100576.21
2023-06-07T13:10:59.226Z,100569.95
2023-06-07T13:16:01.656Z,100569.32
2023-06-07T13:21:04.057Z,100566.27
2023-06-07T13:26:06.448Z,100555.66
2023-06-07T13:31:08.320Z,100547.66
2023-06-07T13:36:10.244Z,100540.27
2023-06-07T13:41:12.378Z,100533.66
2023-06-07T13:46:15.628Z,100529.58
2023-06-07T13:51:18.599Z,100521.77
2023-06-07T13:56:22.936Z,100525.86
2023-06-07T14:01:25.044Z,100520.68
2023-06-07T14:06:27.885Z,100517.23
2023-06-07T14:11:30.912Z,100510.94
2023-06-07T14:16:33.161Z,100507.99
2023-06-07T14:21:36.716Z,100506.33
2023-06-07T14:26:38.696Z,100502.73
2023-06-07T14:31:40.829Z,100510.73
2023-06-07T14:36:44.297Z,100505.95
2023-06-07T14:41:46.782Z,100504.73
2023-06-07T14:46:48.665Z,100498.19
2023-06-07T14:51:50.660Z,100496.08
2023-06-07T14:56:52.630Z,100491.98
2023-06-07T15:01:54.602Z,100493.04
2023-06-07T15:06:56.480Z,100493.70
2023-06-07T15:11:59.684Z,100493.64
2023-06-07T15:17:04.244Z,100494.59
2023-06-07T15:22:07.538Z,100490.89
2023-06-07T15:27:10.254Z,100489.05
2023-06-07T15:32:12.938Z,100484.88
2023-06-07T15:37:15.523Z,100480.87
2023-06-07T15:42:18.430Z,100480.89
2023-06-07T15:47:20.404Z,100479.70
2023-06-07T15:52:23.707Z,100476.55
2023-06-07T15:57:26.207Z,100475.34
2023-06-07T16:02:28.553Z,100473.45
2023-06-07T16:07:30.596Z,100477.60
2023-06-07T16:12:32.757Z,100478.94
2023-06-07T16:17:35.010Z,100480.19
2023-06-07T16:22:37.871Z,100475.67
2023-06-07T16:27:41.696Z,100478.36
2023-06-07T16:32:44.004Z,100482.06
2023-06-07T16:37:47.359Z,100481.06
2023-06-07T16:42:49.654Z,100477.85
2023-06-07T16:47:51.437Z,100479.00
2023-06-07T16:52:53.414Z,100478.98
2023-06-07T16:57:55.688Z,100476.48
2023-06-07T17:02:58.156Z,100476.64
2023-06-07T17:08:00.365Z,100477.02
2023-06-07T17:13:02.813Z,100476.33
2023-06-07T17:18:04.967Z,100471.66
2023-06-07T17:23:07.329Z,100479.94
2023-06-07T17:28:10.338Z,100479.84
2023-06-07T17:33:12.558Z,100484.09
2023-06-07T17:38:14.908Z,100486.55
2023-06-07T17:43:16.905Z,100489.16
2023-06-07T17:48:19.071Z,100491.48
2023-06-07T17:53:20.972Z,100492.52
2023-06-07T17:58:23.646Z,100498.70
2023-06-07T18:03:26.058Z,100504.30
2023-06-07T18:08:28.122Z,100508.30
2023-06-07T18:13:29.994Z,100512.98
2023-06-07T18:18:35.160Z,100519.21
2023-06-07T18:23:37.306Z,100525.46
2023-06-07T18:28:39.312Z,100530.60
2023-06-07T18:33:49.906Z,100537.91
2023-06-07T18:38:54.658Z,100539.21
2023-06-07T18:44:01.632Z,100545.17
2023-06-07T18:49:06.072Z,100546.58
2023-06-07T18:54:08.669Z,100545.03
2023-06-07T18:59:10.747Z,100549.48
2023-06-07T19:04:14.252Z,100559.08
2023-06-07T19:09:19.621Z,100561.64
2023-06-07T19:14:22.058Z,100565.41
2023-06-07T19:19:25.122Z,100570.66
2023-06-07T19:24:28.039Z,100569.63
2023-06-07T19:29:30.838Z,100577.84
2023-06-07T19:34:35.991Z,100579.84
2023-06-07T19:39:39.088Z,100582.11
2023-06-07T19:44:43.090Z,100585.02
2023-06-07T19:49:46.969Z,100588.41
2023-06-07T19:54:50.747Z,100585.61
2023-06-07T19:59:54.161Z,100594.04
2023-06-07T20:04:56.246Z,100593.99
2023-06-07T20:10:05.725Z,100590.48
2023-06-07T20:15:11.912Z,100592.38
2023-06-07T20:20:14.776Z,100590.56
2023-06-07T20:25:17.564Z,100582.63
2023-06-07T20:30:19.679Z,100580.59
2023-06-07T20:35:22.256Z,100582.58
2023-06-07T20:40:24.754Z,100587.65
2023-06-07T20:45:27.453Z,100590.95
2023-06-07T20:50:31.157Z,100591.06
2023-06-07T20:55:36.424Z,100584.14
2023-06-07T21:00:42.483Z,100585.75
2023-06-07T21:05:45.191Z,100585.19
2023-06-07T21:10:48.087Z,100586.90
2023-06-07T21:15:54.252Z,100589.77
2023-06-07T21:20:57.064Z,100588.44
2023-06-07T21:25:59.267Z,100591.45
2023-06-07T21:31:02.657Z,100591.19
2023-06-07T21:36:04.951Z,100590.33
2023-06-07T21:41:07.032Z,100590.73
2023-06-07T21:46:09.479Z,100585.27
2023-06-07T21:51:11.910Z,100585.11
2023-06-07T21:56:13.795Z,100590.47
2023-06-07T22:01:17.146Z,100592.55
2023-06-07T22:06:20.462Z,100589.80
2023-06-07T22:11:23.111Z,100591.63
2023-06-07T22:16:26.229Z,100592.98
2023-06-07T22:21:30.964Z,100595.10
2023-06-07T22:26:33.559Z,100592.73
2023-06-07T22:31:37.411Z,100585.18
2023-06-07T22:36:42.537Z,100589.24
2023-06-07T22:41:44.413Z,100589.81
2023-06-07T22:46:46.640Z,100593.04
2023-06-07T22:51:54.203Z,100590.20
2023-06-07T22:56:57.010Z,100592.63
2023-06-07T23:01:58.926Z,100589.48
2023-06-07T23:07:02.905Z,100583.23
2023-06-07T23:12:09.914Z,100580.98
2023-06-07T23:17:12.391Z,100578.60
2023-06-07T23:22:14.269Z,100582.29
2023-06-07T23:27:16.456Z,100576.49
2023-06-07T23:32:18.608Z,100574.38
2023-06-07T23:37:20.593Z,100568.58
2023-06-07T23:42:23.727Z,100562.86
2023-06-07T23:47:26.067Z,100556.48
2023-06-07T23:52:28.088Z,100558.79
2023-06-07T23:57:30.963Z,100558.92
